Latest Weather Observations for Gold Coast Seaway

IDQ60901

Issued at 4:21 pm EST Wednesday 31 August 2016 (issued every 10 minutes, with the page automatically refreshed every 10 minutes)

About weather observations | Map of Brisbane area stations | Latest observations for Brisbane area | Other Formats
Station Details ID: 040764 Name: GOLD COAST SEAWAY Lat: -27.94 Lon: 153.43 Height: 2.98 m
Data from the previous 72 hours. | See also: Recent months at Gold Coast Seaway
Date/Time
EST
Temp
°C
App
Temp
°C
Dew
Point
°C
Rel
Hum
%
Delta-T
°C
Wind Press
QNH
hPa
Press
MSL
hPa
Rain since
9am
mm
Dir  Spd
km/h
Gust
km/h
Spd
kts
Gust
kts
31/04:00pm 20.6 17.8 13.1 62 4.3 N 20 28 11 15 1021.7 1021.7 0.0
31/03:30pm 20.9 18.3 13.1 61 4.4 N 19 24 10 13 1021.7 1021.7 0.0
31/03:00pm 21.0 17.9 12.2 57 4.9 N 20 26 11 14 1021.6 1021.6 0.0
31/02:30pm 22.0 18.8 12.0 53 5.6 N 20 28 11 15 1021.7 1021.7 0.0
31/02:00pm 22.7 19.4 11.7 49 6.2 N 20 30 11 16 1022.3 1022.3 0.0
31/01:30pm 22.3 19.0 11.7 51 5.9 N 20 32 11 17 1022.5 1022.5 0.0
31/01:00pm 21.7 19.1 12.0 54 5.4 N 17 22 9 12 1023.0 1023.0 0.0
31/12:30pm 21.8 19.8 12.6 56 5.2 N 15 24 8 13 1023.5 1023.5 0.0
31/12:00pm 21.6 18.7 11.0 51 5.8 NNW 17 26 9 14 1023.6 1023.6 0.0
31/11:30am 22.3 19.3 12.0 52 5.8 NNW 19 26 10 14 1024.6 1024.6 0.0
31/11:00am 21.5 18.3 11.8 54 5.4 NW 20 30 11 16 1025.2 1025.2 0.0
31/10:30am 22.0 18.8 12.0 53 5.6 NNW 20 28 11 15 1025.5 1025.5 0.0
31/10:00am 21.6 19.1 12.2 55 5.3 NW 17 22 9 12 1026.1 1026.1 0.0
31/09:30am 20.6 18.0 13.1 62 4.3 NW 19 26 10 14 1026.5 1026.5 0.0
31/09:00am 20.1 17.7 12.8 63 4.1 NW 17 24 9 13 1026.7 1026.7 0.0
31/08:30am 19.4 17.5 12.9 66 3.7 NW 15 19 8 10 1026.7 1026.7 0.0
31/08:00am 18.8 17.5 13.6 72 2.9 WNW 13 15 7 8 1026.6 1026.6 0.0
31/07:30am 17.2 16.5 13.3 78 2.2 W 9 11 5 6 1026.3 1026.3 0.0
31/07:00am 16.3 14.8 13.0 81 1.8 W 13 15 7 8 1026.2 1026.2 0.0
31/06:30am 15.7 14.2 13.2 85 1.4 WNW 13 13 7 7 1025.5 1025.5 0.0
31/06:00am 15.6 14.9 13.1 85 1.4 W 9 11 5 6 1025.2 1025.2 0.0
31/05:30am 15.3 14.6 13.2 87 1.2 W 9 11 5 6 1025.1 1025.1 0.0
31/05:00am 14.5 13.5 12.2 86 1.2 WNW 9 9 5 5 1024.6 1024.6 0.0
31/04:30am 14.9 13.6 12.4 85 1.4 W 11 13 6 7 1025.1 1025.1 0.0
31/04:00am 14.4 13.7 12.1 86 1.2 W 7 9 4 5 1024.5 1024.5 0.0
31/03:30am 15.0 13.9 12.0 82 1.6 W 9 11 5 6 1024.7 1024.7 0.0
31/03:00am 15.1 13.7 12.2 83 1.6 WSW 11 13 6 7 1025.0 1025.0 0.0
31/02:30am 15.0 13.9 12.0 82 1.6 WSW 9 11 5 6 1025.1 1025.1 0.0
31/02:00am 15.4 14.4 12.2 81 1.7 WSW 9 11 5 6 1025.5 1025.5 0.0
31/01:30am 15.3 14.3 12.2 82 1.7 WSW 9 11 5 6 1025.8 1025.8 0.0
31/01:00am 14.9 14.2 11.9 82 1.6 WSW 7 11 4 6 1026.1 1026.1 0.0
31/12:30am 15.1 14.0 12.1 82 1.6 WSW 9 11 5 6 1026.4 1026.4 0.0
31/12:00am 15.1 13.9 11.7 80 1.8 WSW 9 11 5 6 1026.5 1026.5 0.0
 
Date/Time
EST
Temp
°C
App
Temp
°C
Dew
Point
°C
Rel
Hum
%
Delta-T
°C
Wind Press
QNH
hPa
Press
MSL
hPa
Rain since
9am
mm
Dir  Spd
km/h
Gust
km/h
Spd
kts
Gust
kts
30/11:30pm 15.4 14.3 12.0 80 1.8 WSW 9 13 5 7 1026.5 1026.5 0.0
30/11:00pm 15.3 14.2 11.9 80 1.8 SW 9 13 5 7 1026.8 1026.8 0.0
30/10:30pm 15.6 13.7 11.8 78 2.1 SW 13 15 7 8 1027.1 1027.1 0.0
30/10:00pm 15.9 14.0 11.9 77 2.2 SW 13 15 7 8 1027.2 1027.2 0.0
30/09:30pm 16.0 14.7 11.4 74 2.5 S 9 13 5 7 1027.5 1027.5 0.0
30/09:00pm 18.4 17.1 12.6 69 3.2 ENE 11 15 6 8 1027.5 1027.5 0.0
30/08:30pm 17.5 16.4 11.8 69 3.1 NE 9 11 5 6 1027.6 1027.6 0.0
30/08:00pm 18.5 17.3 12.7 69 3.2 ENE 11 13 6 7 1027.3 1027.3 0.0
30/07:30pm 18.8 17.4 12.3 66 3.6 ENE 11 15 6 8 1027.2 1027.2 0.0
30/07:00pm 18.8 17.0 12.1 65 3.7 ENE 13 17 7 9 1026.8 1026.8 0.0
30/06:30pm 18.7 17.2 12.0 65 3.7 ENE 11 13 6 7 1026.8 1026.8 0.0
30/06:00pm 18.9 17.4 11.9 64 3.8 ENE 11 13 6 7 1026.5 1026.5 0.0
30/05:30pm 19.0 16.9 11.1 60 4.3 ENE 13 17 7 9 1026.4 1026.4 0.0
30/05:00pm 19.8 17.3 11.0 57 4.8 ENE 15 17 8 9 1026.3 1026.3 0.0
30/04:30pm 20.2 18.2 10.3 53 5.3 ENE 11 15 6 8 1026.3 1026.3 0.0
30/04:00pm 20.4 18.3 11.1 55 5.1 E 13 17 7 9 1026.3 1026.3 0.0
30/03:30pm 21.2 19.1 11.2 53 5.5 E 13 17 7 9 1026.4 1026.4 0.0
30/03:00pm 21.4 19.3 11.1 52 5.7 E 13 17 7 9 1026.4 1026.4 0.0
30/02:30pm 21.8 19.8 11.5 52 5.7 E 13 17 7 9 1026.6 1026.6 0.0
30/02:00pm 21.8 19.7 11.2 51 5.8 E 13 17 7 9 1026.7 1026.7 0.0
30/01:30pm 22.4 20.4 11.5 50 6.1 E 13 19 7 10 1026.9 1026.9 0.0
30/01:00pm 23.0 21.3 12.3 51 6.0 E 13 17 7 9 1027.2 1027.2 0.0
30/12:30pm 21.8 19.7 11.2 51 5.9 ESE 13 15 7 8 1027.7 1027.7 0.0
30/12:00pm 22.2 19.9 11.6 51 5.9 E 15 20 8 11 1028.0 1028.0 0.0
30/11:30am 22.5 19.6 12.4 52 5.7 ESE 19 22 10 12 1028.3 1028.3 0.0
30/11:00am 22.7 19.9 12.6 53 5.7 ESE 19 24 10 13 1028.8 1028.8 0.0
30/10:30am 22.0 19.0 12.0 53 5.6 ESE 19 22 10 12 1029.2 1029.2 0.0
30/10:00am 22.5 20.4 13.6 57 5.1 E 17 20 9 11 1029.5 1029.5 0.0
30/09:30am 21.7 19.7 13.9 61 4.5 ESE 17 24 9 13 1029.2 1029.2 0.0
30/09:00am 19.8 19.0 15.0 74 2.8 SSE 13 17 7 9 1029.0 1029.0 0.0
30/08:30am 18.6 17.8 14.1 75 2.6 S 11 15 6 8 1029.1 1029.1 0.0
30/08:00am 17.4 16.7 14.3 82 1.8 SSW 11 13 6 7 1028.8 1028.8 0.0
30/07:30am 16.0 15.3 14.4 90 0.9 SW 11 15 6 8 1028.2 1028.2 0.0
30/07:00am 15.2 14.4 13.9 92 0.7 SW 11 15 6 8 1027.7 1027.7 0.0
30/06:30am 14.8 13.4 13.5 92 0.7 SW 13 15 7 8 1027.1 1027.1 0.0
30/06:00am 15.0 14.1 13.7 92 0.7 SW 11 13 6 7 1026.5 1026.5 0.0
30/05:30am 15.2 13.8 13.4 89 1.0 SW 13 13 7 7 1026.2 1026.2 0.0
30/05:00am 15.5 14.5 13.3 87 1.2 SW 11 15 6 8 1025.8 1025.8 0.0
30/04:30am 15.7 14.7 13.4 86 1.3 SW 11 13 6 7 1025.5 1025.5 0.0
30/04:00am 15.7 14.7 13.4 86 1.3 SW 11 13 6 7 1025.3 1025.3 0.0
30/03:30am 16.2 15.3 13.7 85 1.4 SW 11 15 6 8 1025.4 1025.4 0.0
30/03:00am 16.2 15.2 13.5 84 1.5 SW 11 13 6 7 1025.2 1025.2 0.0
30/02:30am 16.2 16.9 13.3 83 1.6 SW 2 7 1 4 1025.0 1025.0 0.0
30/02:00am 16.6 17.6 13.3 81 1.8 CALM 0 0 0 0 1025.1 1025.1 0.0
30/01:30am 16.9 16.3 13.6 81 1.9 NNW 9 15 5 8 1025.6 1025.6 0.0
30/01:00am 17.2 15.8 13.5 79 2.1 ENE 13 17 7 9 1025.8 1025.8 0.0
30/12:30am 17.1 17.5 13.6 80 2.0 NNW 4 9 2 5 1026.3 1026.3 0.0
30/12:00am 17.8 16.7 13.1 74 2.6 NNE 11 17 6 9 1026.2 1026.2 0.0
 
Date/Time
EST
Temp
°C
App
Temp
°C
Dew
Point
°C
Rel
Hum
%
Delta-T
°C
Wind Press
QNH
hPa
Press
MSL
hPa
Rain since
9am
mm
Dir  Spd
km/h
Gust
km/h
Spd
kts
Gust
kts
29/11:30pm 18.5 16.9 12.9 70 3.1 NE 13 15 7 8 1026.6 1026.6 0.0
29/11:00pm 18.6 16.7 13.0 70 3.1 NE 15 17 8 9 1026.5 1026.5 0.0
29/10:30pm 18.5 16.9 12.7 69 3.2 NE 13 17 7 9 1026.6 1026.6 0.0
29/10:00pm 18.6 17.1 13.2 71 3.0 NE 13 15 7 8 1026.7 1026.7 0.0
29/09:30pm 18.8 17.3 13.0 69 3.3 NE 13 17 7 9 1026.8 1026.8 0.0
29/09:00pm 19.0 17.2 13.4 70 3.2 NE 15 17 8 9 1026.8 1026.8 0.0
29/08:30pm 18.8 17.0 13.4 71 3.1 NE 15 19 8 10 1026.7 1026.7 0.0
29/08:00pm 19.1 17.3 13.3 69 3.3 NE 15 17 8 9 1026.5 1026.5 0.0
29/07:30pm 19.3 17.7 13.9 71 3.1 NE 15 19 8 10 1026.5 1026.5 0.0
29/07:00pm 19.1 17.3 13.3 69 3.3 NE 15 19 8 10 1026.3 1026.3 0.0
29/06:30pm 19.2 17.4 13.4 69 3.3 NE 15 19 8 10 1025.9 1025.9 0.0
29/06:00pm 19.2 17.1 13.6 70 3.2 NE 17 20 9 11 1025.8 1025.8 0.0
29/05:30pm 19.3 17.5 13.3 68 3.4 NE 15 19 8 10 1025.3 1025.3 0.0
29/05:00pm 19.7 17.8 14.1 70 3.2 NE 17 19 9 10 1025.1 1025.1 0.0
29/04:30pm 20.3 18.9 14.4 69 3.4 NE 15 19 8 10 1024.9 1024.9 0.0
29/04:00pm 20.4 18.5 14.3 68 3.5 ENE 17 20 9 11 1024.5 1024.5 0.0
29/03:30pm 20.9 19.0 14.1 65 3.9 ENE 17 22 9 12 1024.6 1024.6 0.0
29/03:00pm 21.2 19.0 14.4 65 4.0 ENE 19 22 10 12 1024.5 1024.5 0.0
29/02:30pm 21.4 17.5 13.3 60 4.6 ENE 26 28 14 15 1024.2 1024.2 0.0
29/02:00pm 21.6 18.5 13.5 60 4.6 ENE 22 26 12 14 1024.2 1024.2 0.0
29/01:30pm 22.1 18.6 10.9 49 6.2 ENE 20 22 11 12 1024.3 1024.3 0.0
29/01:00pm 21.5 18.5 12.4 56 5.1 ENE 20 26 11 14 1024.5 1024.5 0.0
29/12:30pm 22.2 19.7 14.1 60 4.7 ENE 20 24 11 13 1024.9 1024.9 0.0
29/12:00pm 22.3 19.7 13.9 59 4.9 NE 20 24 11 13 1025.1 1025.1 0.0
29/11:30am 22.2 19.5 13.0 56 5.3 NE 19 20 10 11 1025.5 1025.5 0.0
29/11:00am 22.0 19.8 13.4 58 4.9 NE 17 19 9 10 1025.7 1025.7 0.0
29/10:30am 22.4 21.1 13.7 58 5.0 NE 13 17 7 9 1026.0 1026.0 0.0
29/10:00am 21.8 20.2 11.5 52 5.7 N 11 15 6 8 1025.9 1025.9 0.0
29/09:30am 20.4 18.7 12.4 60 4.5 NW 13 17 7 9 1026.0 1026.0 0.0
29/09:00am 19.9 18.7 12.7 63 4.0 NW 11 13 6 7 1025.9 1025.9 0.0
29/08:30am 18.8 18.1 13.2 70 3.2 WNW 9 11 5 6 1025.7 1025.7 0.0
29/08:00am 16.9 16.0 12.6 76 2.4 WNW 9 11 5 6 1025.4 1025.4 0.0
29/07:30am 15.7 14.4 12.5 81 1.8 W 11 13 6 7 1025.3 1025.3 0.0
29/07:00am 14.8 13.6 12.7 87 1.1 W 11 13 6 7 1024.9 1024.9 0.0
29/06:30am 13.6 12.7 12.5 93 0.6 WSW 9 13 5 7 1024.4 1024.4 0.0
29/06:00am 13.3 11.6 12.4 94 0.5 WSW 13 15 7 8 1023.9 1023.9 0.0
29/05:30am 13.2 11.9 12.4 95 0.4 WSW 11 13 6 7 1023.5 1023.5 0.0
29/05:00am 13.3 12.3 12.2 93 0.6 W 9 11 5 6 1023.2 1023.2 0.0
29/04:30am 13.2 12.1 11.9 92 0.7 W 9 13 5 7 1022.9 1022.9 0.0
29/04:00am 13.2 11.8 12.1 93 0.6 WNW 11 13 6 7 1022.9 1022.9 0.0
29/03:30am 13.2 12.1 11.9 92 0.7 W 9 11 5 6 1022.9 1022.9 0.0
29/03:00am 13.6 12.0 11.7 88 1.0 WSW 11 15 6 8 1023.0 1023.0 0.0
29/02:30am 13.7 12.2 11.9 89 1.0 WSW 11 13 6 7 1023.0 1023.0 0.0
29/02:00am 13.8 11.8 11.5 86 1.2 WSW 13 13 7 7 1023.2 1023.2 0.0
29/01:30am 14.2 13.0 11.7 85 1.3 W 9 11 5 6 1023.3 1023.3 0.0
29/01:00am 13.8 11.8 11.5 86 1.2 W 13 15 7 8 1023.4 1023.4 0.0
29/12:30am 14.2 12.6 11.5 84 1.4 WSW 11 13 6 7 1023.4 1023.4 0.0
29/12:00am 13.9 12.3 11.6 86 1.2 WSW 11 13 6 7 1023.2 1023.2 0.0
 
Date/Time
EST
Temp
°C
App
Temp
°C
Dew
Point
°C
Rel
Hum
%
Delta-T
°C
Wind Press
QNH
hPa
Press
MSL
hPa
Rain since
9am
mm
Dir  Spd
km/h
Gust
km/h
Spd
kts
Gust
kts
28/11:30pm 14.1 13.0 11.8 86 1.2 WSW 9 11 5 6 1023.0 1023.0 0.0
28/11:00pm 14.1 12.5 11.6 85 1.3 SW 11 15 6 8 1023.1 1023.1 0.0
28/10:30pm 14.6 13.5 11.9 84 1.5 SW 9 13 5 7 1023.2 1023.2 0.0
28/10:00pm 14.6 13.0 11.7 83 1.6 SW 11 13 6 7 1023.3 1023.3 0.0
28/09:30pm 15.1 13.7 12.1 82 1.6 SW 11 15 6 8 1023.2 1023.2 0.0
28/09:00pm 15.6 15.1 12.0 79 1.9 S 6 13 3 7 1023.3 1023.3 0.0
28/08:30pm 16.5 15.2 11.2 71 2.9 NE 9 11 5 6 1022.9 1022.9 0.0
28/08:00pm 17.5 16.4 13.2 76 2.4 ENE 11 13 6 7 1022.7 1022.7 0.0
28/07:30pm 17.5 16.5 12.4 72 2.8 ENE 9 13 5 7 1022.5 1022.5 0.0
28/07:00pm 18.0 16.8 12.7 71 2.9 E 11 15 6 8 1022.4 1022.4 0.0
28/06:30pm 18.2 17.0 12.9 71 3.0 ENE 11 13 6 7 1022.2 1022.2 0.0
28/06:00pm 18.3 16.5 12.1 67 3.4 E 13 15 7 8 1022.0 1022.0 0.0
28/05:30pm 18.5 16.9 11.6 64 3.8 E 11 15 6 8 1021.8 1021.8 0.0
28/05:00pm 19.2 17.3 11.7 62 4.1 E 13 15 7 8 1021.5 1021.5 0.0
28/04:30pm 19.8 17.8 11.6 59 4.5 E 13 17 7 9 1021.1 1021.1 0.0

Latest Capital City Observations: Canberra | Sydney | Melbourne | Brisbane | Adelaide | Perth | Hobart | Darwin

Other Formats:

Comma delimited format used in spreadsheet applications
http://www.bom.gov.au/fwo/IDQ60901/IDQ60901.94580.axf

JavaScript Object Notation format (JSON) in row-major order
http://www.bom.gov.au/fwo/IDQ60901/IDQ60901.94580.json